Time;durP1;ratioP1;P1;durP2;ratioP2;P2;SDS_P1;SDS_P2;PMS_P1;PMS_P2;Temp;Humidity;BMP_temperature;BMP_pressure;BME280_temperature;BME280_humidity;BME280_pressure;Samples;Min_cycle;Max_cycle;Signal;HPM_P1;HPM_P2
2021/06/16 00:01:36;;;;;;;2.87;2.53;;;;;;;17.05;75.04;95955.38;4328856;33;20272;-73
2021/06/16 00:04:03;;;;;;;5.40;2.42;;;;;;;17.18;74.58;95954.22;4328647;33;20628;-73
2021/06/16 00:06:28;;;;;;;9.38;2.67;;;;;;;17.18;74.60;95948.97;4328259;33;20725;-73
2021/06/16 00:08:53;;;;;;;8.03;3.00;;;;;;;17.17;75.01;95946.50;4328887;33;20225;-73
2021/06/16 00:11:19;;;;;;;4.73;2.40;;;;;;;16.99;76.33;95948.06;4328269;33;20250;-73
2021/06/16 00:13:44;;;;;;;12.37;3.17;;;;;;;16.98;76.23;95949.00;4328281;33;20271;-73
2021/06/16 00:16:11;;;;;;;6.00;2.70;;;;;;;16.96;76.13;95949.16;4328055;33;20271;-73
2021/06/16 00:18:37;;;;;;;3.53;2.53;;;;;;;16.89;76.35;95941.00;4328621;33;20236;-73
2021/06/16 00:21:03;;;;;;;3.40;2.60;;;;;;;16.87;76.67;95942.94;4328598;33;20274;-73
2021/06/16 00:23:28;;;;;;;6.07;2.73;;;;;;;16.95;75.84;95949.31;4328652;33;20279;-73
2021/06/16 00:25:53;;;;;;;3.27;2.77;;;;;;;17.00;75.73;95942.69;4327787;33;20274;-73
2021/06/16 00:28:19;;;;;;;5.03;2.70;;;;;;;17.02;75.46;95943.41;4328381;33;20400;-73
2021/06/16 00:30:44;;;;;;;3.30;2.70;;;;;;;16.86;76.32;95945.66;4328449;33;20294;-73
2021/06/16 00:33:11;;;;;;;3.50;2.60;;;;;;;16.75;77.02;95938.72;4314989;33;20562;-73
2021/06/16 00:35:37;;;;;;;2.60;2.40;;;;;;;16.71;76.91;95937.28;4328175;33;20257;-73
2021/06/16 00:38:02;;;;;;;4.70;2.53;;;;;;;16.73;76.41;95940.63;4328615;33;20231;-73
2021/06/16 00:40:29;;;;;;;3.90;2.80;;;;;;;16.76;76.19;95940.41;4327902;33;20255;-73
2021/06/16 00:42:57;;;;;;;3.90;2.70;;;;;;;16.82;75.57;95939.88;4328219;33;20244;-73
2021/06/16 00:45:23;;;;;;;3.30;2.47;;;;;;;16.79;75.78;95940.13;4314409;33;20251;-73
2021/06/16 00:47:48;;;;;;;3.60;2.20;;;;;;;16.68;76.40;95934.94;4328410;33;20648;-73
2021/06/16 00:50:15;;;;;;;8.20;2.80;;;;;;;16.63;76.78;95937.94;4328124;33;20233;-73
2021/06/16 00:52:41;;;;;;;3.80;2.60;;;;;;;16.64;76.57;95939.59;4328417;33;20251;-73
2021/06/16 00:55:07;;;;;;;3.13;2.53;;;;;;;16.59;77.02;95939.16;4327866;33;20258;-73
2021/06/16 00:57:33;;;;;;;4.55;2.50;;;;;;;16.66;76.65;95935.06;4328004;33;20235;-73
2021/06/16 01:00:04;;;;;;;3.97;2.70;;;;;;;16.70;76.36;95936.47;4328219;33;20223;-73
2021/06/16 01:02:34;;;;;;;5.12;2.42;;;;;;;16.62;77.05;95938.09;4327643;33;20228;-73
2021/06/16 01:05:01;;;;;;;5.97;2.87;;;;;;;16.51;77.68;95928.53;4328047;33;20232;-73
2021/06/16 01:07:37;;;;;;;3.42;2.80;;;;;;;16.50;77.85;95928.63;4327376;33;20235;-73
2021/06/16 01:10:05;;;;;;;3.75;2.78;;;;;;;16.47;77.88;95932.34;4328478;33;20248;-73
2021/06/16 01:12:40;;;;;;;4.40;2.77;;;;;;;16.52;77.44;95935.41;4328042;33;20335;-73
2021/06/16 01:15:09;;;;;;;4.32;2.55;;;;;;;16.55;77.28;95927.31;4327811;33;20294;-73
2021/06/16 01:17:36;;;;;;;4.80;2.67;;;;;;;16.64;76.43;95930.94;4314544;33;20240;-73
2021/06/16 01:20:31;;;;;;;3.90;2.75;;;;;;;16.59;76.69;95936.56;4314327;33;20652;-73
2021/06/16 01:23:11;;;;;;;4.77;2.43;;;;;;;16.56;76.71;95928.12;4327646;33;20240;-73
2021/06/16 01:25:41;;;;;;;6.05;2.62;;;;;;;16.60;76.61;95929.53;4330338;33;20236;-73
2021/06/16 01:28:09;;;;;;;2.90;2.15;;;;;;;16.52;76.33;95921.50;4330322;33;20259;-73
2021/06/16 01:30:36;;;;;;;3.70;2.27;;;;;;;16.26;77.85;95921.91;4317174;33;20318;-73
2021/06/16 01:33:04;;;;;;;4.35;2.53;;;;;;;16.27;77.40;95912.28;4330887;33;20220;-73
2021/06/16 01:35:31;;;;;;;2.60;2.30;;;;;;;16.25;77.05;95914.19;4330603;33;20299;-73
2021/06/16 01:37:57;;;;;;;3.47;2.58;;;;;;;16.30;76.65;95920.69;4330658;33;20224;-73
2021/06/16 01:40:25;;;;;;;2.42;2.10;;;;;;;16.26;76.92;95915.84;4330800;33;20228;-73
2021/06/16 01:42:53;;;;;;;4.07;2.67;;;;;;;16.18;76.92;95925.16;4330982;33;20216;-73
2021/06/16 01:45:20;;;;;;;4.53;2.60;;;;;;;16.11;77.48;95921.38;4330103;33;20228;-73
2021/06/16 01:47:48;;;;;;;3.45;2.70;;;;;;;16.01;78.08;95919.66;4330336;33;20276;-73
2021/06/16 01:50:17;;;;;;;5.20;2.72;;;;;;;15.90;78.96;95918.72;4330522;33;20294;-73
2021/06/16 01:52:44;;;;;;;5.47;2.85;;;;;;;15.82;79.60;95925.56;4330608;33;20276;-73
2021/06/16 01:55:10;;;;;;;4.68;2.90;;;;;;;15.79;79.71;95918.78;4330457;33;20287;-73
2021/06/16 01:57:37;;;;;;;3.47;2.92;;;;;;;15.74;80.21;95923.56;4330206;33;20284;-73
2021/06/16 02:00:05;;;;;;;5.45;2.92;;;;;;;15.75;79.92;95919.97;4330314;33;20228;-73
2021/06/16 02:02:32;;;;;;;4.07;2.72;;;;;;;15.71;80.87;95923.81;4330363;33;20240;-73
2021/06/16 02:04:58;;;;;;;3.50;2.65;;;;;;;15.68;81.00;95917.06;4317227;33;20244;-73
2021/06/16 02:07:27;;;;;;;5.63;3.10;;;;;;;15.68;81.23;95926.66;4329963;33;20366;-73
2021/06/16 02:09:54;;;;;;;2.65;2.40;;;;;;;15.70;81.37;95914.31;4330272;33;20600;-73
2021/06/16 02:12:21;;;;;;;3.78;2.67;;;;;;;15.77;80.89;95909.44;4330131;33;20360;-73
2021/06/16 02:14:49;;;;;;;5.75;2.85;;;;;;;15.86;80.07;95912.09;4330128;33;20255;-73
2021/06/16 02:17:18;;;;;;;2.97;2.60;;;;;;;15.92;79.44;95902.97;4330145;33;20228;-73
2021/06/16 02:19:46;;;;;;;4.10;2.72;;;;;;;16.00;78.94;95908.37;4330596;33;20224;-73
2021/06/16 02:22:13;;;;;;;3.00;2.30;;;;;;;16.06;78.04;95909.66;4317184;33;20251;-73
2021/06/16 02:24:39;;;;;;;3.03;2.47;;;;;;;16.12;77.10;95904.75;4330033;33;20232;-73
2021/06/16 02:27:06;;;;;;;3.47;2.65;;;;;;;16.13;76.65;95903.81;4368062;27;20274;-76
2021/06/16 02:29:32;;;;;;;2.58;2.33;;;;;;;16.17;76.11;95902.59;4383163;32;20218;-75
2021/06/16 02:31:58;;;;;;;3.60;2.70;;;;;;;16.17;76.43;95901.78;4389919;32;20640;-75
2021/06/16 02:34:24;;;;;;;4.90;2.85;;;;;;;16.12;76.28;95896.06;4375633;32;20217;-75
2021/06/16 02:36:54;;;;;;;3.78;2.62;;;;;;;15.91;76.93;95902.13;4388567;32;20221;-76
2021/06/16 02:39:24;;;;;;;2.47;2.27;;;;;;;15.87;77.07;95897.25;4389072;32;20356;-75
2021/06/16 02:41:50;;;;;;;6.25;2.60;;;;;;;16.00;76.69;95904.94;4389244;32;20252;-75
2021/06/16 02:44:17;;;;;;;5.40;2.35;;;;;;;15.96;77.90;95899.13;4375588;32;20229;-75
2021/06/16 02:46:47;;;;;;;2.97;2.20;;;;;;;15.99;76.93;95898.88;4388894;32;20221;-75
2021/06/16 02:49:14;;;;;;;2.58;2.20;;;;;;;15.91;77.16;95896.91;4389189;32;20557;-76
2021/06/16 02:51:40;;;;;;;2.92;2.28;;;;;;;15.82;77.72;95891.59;4388903;32;20590;-76
2021/06/16 02:54:11;;;;;;;4.47;2.65;;;;;;;15.65;79.00;95898.19;4389594;32;20230;-76
2021/06/16 02:56:38;;;;;;;3.77;2.63;;;;;;;15.61;79.10;95889.75;4389081;32;20290;-76
2021/06/16 02:59:04;;;;;;;3.30;2.40;;;;;;;15.65;78.69;95888.59;4389125;32;20226;-76
2021/06/16 03:01:30;;;;;;;3.53;2.70;;;;;;;15.56;79.51;95894.50;4389157;32;20230;-77
2021/06/16 03:03:58;;;;;;;4.28;2.60;;;;;;;15.55;79.59;95886.81;4389250;32;20679;-76
2021/06/16 03:06:24;;;;;;;4.07;2.78;;;;;;;15.49;79.86;95880.28;4374930;32;20225;-77
2021/06/16 03:08:55;;;;;;;2.80;2.50;;;;;;;15.48;80.18;95887.28;4388775;32;20221;-76
2021/06/16 03:11:23;;;;;;;3.75;2.62;;;;;;;15.53;80.05;95884.31;4375190;32;20254;-76
2021/06/16 03:13:49;;;;;;;4.55;2.62;;;;;;;15.56;79.94;95884.06;4389143;32;20229;-76
2021/06/16 03:16:17;;;;;;;7.72;2.55;;;;;;;15.66;78.85;95885.03;4388436;32;20290;-76
2021/06/16 03:18:44;;;;;;;2.92;2.10;;;;;;;15.68;78.82;95877.91;4388498;32;20271;-76
2021/06/16 03:21:10;;;;;;;4.40;2.65;;;;;;;15.63;78.75;95880.00;4388558;32;20238;-77
2021/06/16 03:23:36;;;;;;;4.87;2.60;;;;;;;15.57;78.76;95879.66;4389062;32;20226;-76
2021/06/16 03:26:02;;;;;;;3.75;2.62;;;;;;;15.42;79.85;95879.13;4388570;32;20279;-76
2021/06/16 03:28:31;;;;;;;5.10;3.17;;;;;;;15.27;80.86;95885.56;4374952;32;20282;-77
2021/06/16 03:30:59;;;;;;;4.05;2.92;;;;;;;15.20;82.15;95880.00;4384920;32;20332;-77
2021/06/16 03:33:25;;;;;;;5.85;2.90;;;;;;;15.25;81.43;95881.31;4382095;32;20675;-77
2021/06/16 03:35:50;;;;;;;5.93;2.87;;;;;;;15.24;82.00;95881.44;4371782;32;20250;-77
2021/06/16 03:38:16;;;;;;;4.10;2.80;;;;;;;15.24;82.01;95886.66;4369359;32;20234;-77
2021/06/16 03:40:43;;;;;;;7.37;2.92;;;;;;;15.23;82.11;95885.00;4374890;32;20638;-77
2021/06/16 03:43:11;;;;;;;5.95;3.28;;;;;;;15.14;82.86;95885.72;4388869;32;20241;-77
2021/06/16 03:45:39;;;;;;;3.97;2.95;;;;;;;15.15;83.37;95876.94;4387897;32;20348;-77
2021/06/16 03:48:08;;;;;;;4.35;2.90;;;;;;;15.09;83.70;95880.88;4388795;32;20225;-77
2021/06/16 03:50:37;;;;;;;4.07;3.10;;;;;;;15.05;84.54;95882.03;4387098;32;20300;-77
2021/06/16 03:53:03;;;;;;;4.90;3.10;;;;;;;15.06;84.29;95881.12;4381098;32;20227;-77
2021/06/16 03:55:29;;;;;;;3.87;3.25;;;;;;;15.10;83.86;95877.31;4374484;32;20249;-77
2021/06/16 03:57:55;;;;;;;5.18;3.40;;;;;;;15.08;84.23;95878.37;4387949;32;20248;-77
2021/06/16 04:00:22;;;;;;;6.17;3.20;;;;;;;15.04;84.86;95882.19;4388613;32;20565;-76
2021/06/16 04:02:49;;;;;;;4.25;3.30;;;;;;;14.96;85.81;95878.41;4388272;32;20557;-76
2021/06/16 04:05:16;;;;;;;4.28;2.92;;;;;;;15.00;85.55;95881.59;4388035;32;20242;-76
2021/06/16 04:07:46;;;;;;;5.15;3.22;;;;;;;15.04;84.78;95880.41;4388110;32;20335;-76
2021/06/16 04:10:13;;;;;;;3.33;3.03;;;;;;;15.08;84.96;95876.59;4388264;32;20279;-77
2021/06/16 04:12:39;;;;;;;4.47;3.30;;;;;;;15.07;85.57;95874.94;4387618;32;20267;-75
2021/06/16 04:15:05;;;;;;;5.28;3.40;;;;;;;15.05;86.28;95871.63;4375898;32;20570;-75
2021/06/16 04:17:30;;;;;;;4.80;3.40;;;;;;;15.14;86.14;95872.69;4371837;32;20223;-74
2021/06/16 04:19:57;;;;;;;6.50;3.47;;;;;;;15.26;85.78;95876.91;4370619;32;20319;-75
2021/06/16 04:22:23;;;;;;;9.00;3.53;;;;;;;15.45;84.86;95878.88;4362396;32;20532;-75
2021/06/16 04:24:48;;;;;;;5.80;3.20;;;;;;;15.59;84.94;95872.56;4380593;32;20284;-74
2021/06/16 04:27:14;;;;;;;4.47;3.30;;;;;;;15.64;83.98;95876.44;4377856;32;20289;-73
2021/06/16 04:29:41;;;;;;;5.43;3.40;;;;;;;15.61;84.47;95874.09;4378889;32;20262;-77
2021/06/16 04:32:07;;;;;;;4.07;3.00;;;;;;;15.67;84.84;95878.00;4387120;32;20259;-77
2021/06/16 04:34:32;;;;;;;5.37;3.10;;;;;;;15.80;84.44;95878.69;4388210;32;20255;-77
2021/06/16 04:36:59;;;;;;;5.70;3.00;;;;;;;15.90;83.79;95869.09;4379526;32;20225;-77
2021/06/16 04:39:24;;;;;;;5.10;2.92;;;;;;;16.00;81.86;95869.19;4359119;32;20227;-77
2021/06/16 04:41:50;;;;;;;8.30;3.53;;;;;;;16.13;80.58;95867.22;4372869;32;20230;-77
2021/06/16 04:44:15;;;;;;;4.07;3.10;;;;;;;16.24;79.03;95875.94;4367580;32;20237;-77
2021/06/16 04:46:40;;;;;;;2.80;2.50;;;;;;;16.34;78.30;95871.59;4358775;32;20244;-77
2021/06/16 04:49:06;;;;;;;4.90;3.20;;;;;;;16.45;78.06;95876.75;4381604;32;20269;-77
2021/06/16 04:51:31;;;;;;;5.28;3.15;;;;;;;16.67;79.93;95875.75;4387781;32;20279;-77
2021/06/16 04:53:58;;;;;;;4.53;3.07;;;;;;;16.77;81.11;95874.03;4388048;32;20656;-77
2021/06/16 04:56:23;;;;;;;5.20;3.35;;;;;;;16.75;80.61;95864.66;4373597;32;20228;-77
2021/06/16 04:58:49;;;;;;;5.37;3.60;;;;;;;16.65;76.73;95870.66;4388355;32;20225;-77
2021/06/16 05:01:14;;;;;;;6.30;3.60;;;;;;;16.74;76.22;95866.47;4387482;32;20249;-77
2021/06/16 05:03:40;;;;;;;3.40;3.10;;;;;;;16.80;74.39;95868.56;4380065;32;20673;-77
2021/06/16 05:06:05;;;;;;;5.10;3.10;;;;;;;16.93;75.51;95863.91;4359812;32;20231;-73
2021/06/16 05:08:31;;;;;;;4.13;3.00;;;;;;;17.13;78.91;95871.81;4361596;32;20209;-77
2021/06/16 05:10:57;;;;;;;12.07;3.55;;;;;;;17.19;78.87;95871.28;4379608;32;20325;-77
2021/06/16 05:13:24;;;;;;;7.85;3.40;;;;;;;17.14;75.30;95871.69;4387561;32;20234;-77
2021/06/16 05:15:50;;;;;;;9.27;3.33;;;;;;;17.05;72.90;95874.25;4371364;32;20219;-76
2021/06/16 05:18:15;;;;;;;3.55;3.20;;;;;;;17.10;72.94;95869.47;4356154;32;20258;-77
2021/06/16 05:20:41;;;;;;;4.57;3.50;;;;;;;17.14;73.45;95865.62;4376622;32;20625;-77
2021/06/16 05:23:06;;;;;;;4.60;3.60;;;;;;;17.28;72.57;95869.63;4373169;32;20311;-77
2021/06/16 05:25:32;;;;;;;5.40;3.87;;;;;;;17.42;72.49;95866.62;4377967;32;20558;-77
2021/06/16 05:27:58;;;;;;;5.97;3.50;;;;;;;17.42;71.50;95864.84;4371848;32;20296;-77
2021/06/16 05:30:24;;;;;;;7.65;3.65;;;;;;;17.31;72.33;95858.91;4387039;32;20267;-75
2021/06/16 05:32:49;;;;;;;6.33;3.40;;;;;;;17.38;72.64;95865.25;4387345;32;20636;-75
2021/06/16 05:35:15;;;;;;;6.97;3.50;;;;;;;17.40;72.51;95853.69;4386906;32;20264;-76
2021/06/16 05:37:43;;;;;;;4.90;3.33;;;;;;;17.62;72.19;95855.22;4386895;32;20248;-76
2021/06/16 05:40:09;;;;;;;4.95;3.60;;;;;;;17.64;71.21;95857.69;4373742;32;20264;-76
2021/06/16 05:42:34;;;;;;;4.07;3.20;;;;;;;17.50;70.77;95850.22;4373092;32;20214;-75
2021/06/16 05:45:01;;;;;;;3.90;3.20;;;;;;;17.55;70.41;95851.50;4376748;32;20276;-74
2021/06/16 05:47:26;;;;;;;6.80;3.28;;;;;;;17.70;70.06;95851.91;4371721;32;20290;-76
2021/06/16 05:49:52;;;;;;;5.27;3.37;;;;;;;17.84;69.18;95855.94;4372552;32;20246;-75
2021/06/16 05:52:17;;;;;;;3.57;3.20;;;;;;;17.76;69.02;95855.78;4358544;32;20314;-75
2021/06/16 05:54:42;;;;;;;4.47;3.23;;;;;;;17.83;69.42;95849.84;4372097;32;20273;-75
2021/06/16 05:57:08;;;;;;;5.30;3.42;;;;;;;18.04;69.53;95852.31;4371770;32;20623;-77
2021/06/16 05:59:33;;;;;;;8.67;3.30;;;;;;;18.26;68.56;95853.81;4372176;32;20236;-76
2021/06/16 06:02:00;;;;;;;5.60;3.03;;;;;;;18.31;68.57;95856.81;4372176;32;20223;-76
2021/06/16 06:04:26;;;;;;;5.12;3.47;;;;;;;18.41;67.60;95856.81;4371991;32;20647;-77
2021/06/16 06:06:51;;;;;;;7.47;3.03;;;;;;;18.41;67.73;95853.38;4371623;32;20273;-75
2021/06/16 06:09:16;;;;;;;5.73;3.10;;;;;;;18.59;67.08;95851.66;4373247;32;20266;-75
2021/06/16 06:11:42;;;;;;;6.53;3.40;;;;;;;18.70;66.65;95856.72;4374536;32;20310;-75
2021/06/16 06:14:07;;;;;;;5.32;3.12;;;;;;;19.07;66.85;95856.72;4373936;32;20231;-75
2021/06/16 06:16:33;;;;;;;5.87;3.20;;;;;;;19.32;65.69;95854.37;4374463;32;20224;-75
2021/06/16 06:19:00;;;;;;;4.78;3.30;;;;;;;19.56;65.00;95851.16;4374574;32;20231;-75
2021/06/16 06:21:32;;;;;;;4.80;3.30;;;;;;;19.80;63.89;95855.81;4375178;32;20252;-76
2021/06/16 06:23:59;;;;;;;6.30;3.20;;;;;;;20.07;64.54;95849.66;4375237;32;20219;-75
2021/06/16 06:26:25;;;;;;;5.55;3.10;;;;;;;20.12;62.07;95849.19;4374037;32;20261;-76
2021/06/16 06:28:50;;;;;;;7.87;3.17;;;;;;;20.08;62.94;95853.94;4361056;32;20239;-74
2021/06/16 06:31:15;;;;;;;8.17;3.70;;;;;;;20.06;63.06;95851.47;4375081;32;20219;-75
2021/06/16 06:33:41;;;;;;;4.77;3.50;;;;;;;20.12;62.76;95857.91;4374760;32;20261;-75
2021/06/16 06:36:07;;;;;;;5.10;3.03;;;;;;;20.17;61.77;95854.81;4374520;32;20282;-75
2021/06/16 06:38:33;;;;;;;5.65;3.40;;;;;;;20.37;61.10;95858.91;4374645;32;20297;-74
2021/06/16 06:40:58;;;;;;;6.73;3.33;;;;;;;20.41;60.70;95852.34;4360612;32;20662;-74
2021/06/16 06:43:24;;;;;;;5.37;3.17;;;;;;;20.59;60.04;95851.50;4374185;32;20593;-76
2021/06/16 06:45:49;;;;;;;4.23;3.03;;;;;;;20.71;59.46;95843.16;4374088;32;20223;-76
2021/06/16 06:48:14;;;;;;;11.43;3.57;;;;;;;20.79;60.10;95847.66;4374797;32;20243;-77
2021/06/16 06:50:40;;;;;;;11.53;3.07;;;;;;;21.30;60.82;95839.78;4374115;32;20219;-77
2021/06/16 06:53:07;;;;;;;3.67;2.73;;;;;;;21.70;59.05;95839.06;4374784;32;20236;-76
2021/06/16 06:55:32;;;;;;;3.42;2.50;;;;;;;22.11;56.85;95831.97;4360401;32;20309;-75
2021/06/16 06:57:57;;;;;;;6.27;2.83;;;;;;;22.46;54.12;95832.59;4360671;32;20539;-75
2021/06/16 07:00:23;;;;;;;6.10;2.70;;;;;;;22.71;53.14;95836.84;4374203;32;20227;-76
2021/06/16 07:02:48;;;;;;;3.50;2.30;;;;;;;22.75;52.33;95832.03;4374361;32;20272;-76
2021/06/16 07:05:16;;;;;;;4.90;3.00;;;;;;;23.04;52.40;95836.75;4373780;32;20227;-75
2021/06/16 07:07:42;;;;;;;8.53;3.10;;;;;;;23.18;52.07;95832.56;4373978;32;20327;-76
2021/06/16 07:10:10;;;;;;;4.20;2.80;;;;;;;23.32;49.82;95828.34;4374201;32;20346;-75
2021/06/16 07:12:36;;;;;;;5.53;2.65;;;;;;;23.28;51.25;95837.63;4360100;32;20692;-76
2021/06/16 07:15:02;;;;;;;3.03;2.43;;;;;;;23.13;51.67;95837.53;4359799;32;20302;-75
2021/06/16 07:17:27;;;;;;;5.47;3.05;;;;;;;22.89;51.14;95839.25;4360065;32;20704;-75
2021/06/16 07:19:53;;;;;;;3.20;2.40;;;;;;;22.90;50.84;95838.25;4373520;32;20227;-75
2021/06/16 07:22:19;;;;;;;4.50;2.80;;;;;;;23.49;50.84;95835.19;4373608;32;20261;-74
2021/06/16 07:24:45;;;;;;;6.15;2.78;;;;;;;23.72;49.45;95829.94;4358603;32;20602;-74
2021/06/16 07:27:13;;;;;;;4.45;2.60;;;;;;;23.75;50.03;95834.88;4358426;32;20228;-74
2021/06/16 07:29:38;;;;;;;4.80;2.78;;;;;;;24.07;49.57;95825.06;4358549;33;20278;-75
2021/06/16 07:32:04;;;;;;;3.80;2.55;;;;;;;24.01;49.02;95823.94;4358797;33;20564;-75
2021/06/16 07:34:30;;;;;;;7.47;2.50;;;;;;;23.77;49.56;95827.62;4358654;33;20560;-74
2021/06/16 07:36:55;;;;;;;8.00;2.73;;;;;;;23.89;49.40;95820.06;4358878;32;20283;-74
2021/06/16 07:39:21;;;;;;;4.05;2.33;;;;;;;23.76;49.71;95815.38;4358657;32;20302;-74
2021/06/16 07:41:47;;;;;;;6.57;2.70;;;;;;;24.07;49.29;95823.22;4344971;33;20233;-74
2021/06/16 07:44:13;;;;;;;4.50;2.13;;;;;;;24.10;48.95;95816.75;4363215;32;20579;-75
2021/06/16 07:46:39;;;;;;;6.32;2.67;;;;;;;24.12;48.24;95812.94;4373169;32;20558;-75
2021/06/16 07:49:05;;;;;;;7.65;2.78;;;;;;;24.44;47.52;95818.94;4373347;32;20226;-75
2021/06/16 07:51:30;;;;;;;7.33;2.80;;;;;;;24.67;48.12;95816.22;4359497;32;20257;-75
2021/06/16 07:53:56;;;;;;;5.47;2.30;;;;;;;25.17;47.17;95816.47;4373509;32;20288;-74
2021/06/16 07:56:22;;;;;;;4.90;2.20;;;;;;;25.54;45.49;95818.09;4372834;32;20333;-75
2021/06/16 07:58:47;;;;;;;4.53;2.30;;;;;;;25.92;43.98;95813.44;4373279;32;20634;-75
2021/06/16 08:01:14;;;;;;;4.07;2.10;;;;;;;26.15;42.71;95812.38;4373458;32;20257;-76
2021/06/16 08:03:39;;;;;;;3.67;2.08;;;;;;;25.84;41.33;95810.88;4373152;32;20227;-77
2021/06/16 08:06:05;;;;;;;8.03;2.30;;;;;;;25.69;41.85;95813.56;4358962;32;20651;-77
2021/06/16 08:08:30;;;;;;;2.80;1.90;;;;;;;26.06;41.96;95809.84;4367412;32;20554;-76
2021/06/16 08:10:56;;;;;;;2.60;1.95;;;;;;;26.03;41.72;95807.59;4373050;32;20247;-76
2021/06/16 08:13:21;;;;;;;3.30;2.20;;;;;;;26.39;40.84;95808.47;4373069;32;20235;-77
2021/06/16 08:15:47;;;;;;;4.93;2.20;;;;;;;26.24;41.95;95809.37;4372073;32;20309;-76
2021/06/16 08:18:13;;;;;;;7.10;2.40;;;;;;;26.30;41.82;95800.66;4372927;32;20627;-75
2021/06/16 08:20:39;;;;;;;5.03;1.95;;;;;;;26.54;40.11;95809.22;4373126;32;20644;-76
2021/06/16 08:23:06;;;;;;;5.62;2.33;;;;;;;26.76;39.79;95807.31;4372668;32;20250;-75
2021/06/16 08:25:32;;;;;;;6.05;2.30;;;;;;;26.47;39.46;95803.84;4372584;32;20258;-76
2021/06/16 08:27:57;;;;;;;5.40;2.60;;;;;;;26.48;40.45;95802.03;4410679;27;20350;-74
2021/06/16 08:30:22;;;;;;;3.97;2.12;;;;;;;26.08;40.62;95796.41;4367434;32;20207;-77
2021/06/16 08:32:48;;;;;;;3.77;2.23;;;;;;;26.22;40.65;95795.50;4366299;32;20211;-75
2021/06/16 08:35:15;;;;;;;4.60;2.30;;;;;;;26.42;39.42;95798.28;4368585;32;20252;-75
2021/06/16 08:37:41;;;;;;;4.03;2.42;;;;;;;26.47;39.71;95798.53;4369321;32;20219;-77
2021/06/16 08:40:07;;;;;;;3.87;2.30;;;;;;;26.82;39.63;95801.22;4353709;32;20250;-76
2021/06/16 08:42:33;;;;;;;4.57;2.30;;;;;;;26.73;39.38;95802.37;4355926;32;20231;-73
2021/06/16 08:44:59;;;;;;;7.87;2.22;;;;;;;27.03;41.04;95797.62;4368769;32;20630;-73
2021/06/16 08:47:25;;;;;;;4.35;2.08;;;;;;;27.30;39.46;95793.25;4368363;32;20239;-73
2021/06/16 08:49:51;;;;;;;6.50;2.47;;;;;;;27.38;38.95;95793.06;4357207;33;20270;-74
2021/06/16 08:52:18;;;;;;;3.93;2.20;;;;;;;27.73;38.70;95790.28;4357593;33;20225;-75
2021/06/16 08:54:44;;;;;;;6.03;2.30;;;;;;;28.34;39.61;95799.97;4357288;33;20275;-74
2021/06/16 08:57:09;;;;;;;5.07;2.42;;;;;;;28.55;38.00;95799.72;4357159;33;20244;-74
2021/06/16 08:59:35;;;;;;;5.17;2.60;;;;;;;28.28;37.99;95790.12;4357480;32;20300;-74
2021/06/16 09:02:02;;;;;;;5.37;2.33;;;;;;;28.49;38.24;95797.91;4361495;32;20250;-74
2021/06/16 09:04:41;;;;;;;6.25;2.22;;;;;;;28.87;37.75;95791.88;4358013;32;20228;-74
2021/06/16 09:07:11;;;;;;;7.35;2.67;;;;;;;29.25;37.09;95797.28;4353189;32;20275;-73
2021/06/16 09:09:38;;;;;;;7.32;2.78;;;;;;;29.54;35.90;95792.44;4369117;32;20606;-73
2021/06/16 09:12:06;;;;;;;7.00;2.50;;;;;;;29.55;36.60;95786.87;4366679;32;20251;-73
2021/06/16 09:14:31;;;;;;;7.37;2.55;;;;;;;29.49;36.25;95795.75;4365527;32;20263;-73
2021/06/16 09:17:00;;;;;;;5.28;2.60;;;;;;;29.06;38.32;95790.19;4370308;32;20216;-75
2021/06/16 09:19:30;;;;;;;4.25;2.60;;;;;;;29.59;37.25;95790.78;4366043;32;20215;-74
2021/06/16 09:21:59;;;;;;;2.53;1.92;;;;;;;29.61;36.74;95794.06;4372386;32;20249;-75
2021/06/16 09:24:24;;;;;;;6.70;2.70;;;;;;;29.56;35.93;95790.38;4372341;32;20298;-74
2021/06/16 09:26:51;;;;;;;7.07;2.33;;;;;;;29.69;34.93;95787.63;4371854;32;20237;-73
2021/06/16 09:29:28;;;;;;;5.47;2.58;;;;;;;29.53;36.51;95796.13;4358938;32;20233;-73
2021/06/16 09:32:02;;;;;;;4.03;2.33;;;;;;;30.04;36.41;95779.19;4372757;32;20265;-73
2021/06/16 09:34:27;;;;;;;5.12;2.22;;;;;;;30.18;35.63;95790.59;4368346;32;20265;-73
2021/06/16 09:36:54;;;;;;;5.97;2.50;;;;;;;30.10;38.60;95786.31;4365448;32;20223;-72
2021/06/16 09:39:23;;;;;;;7.10;2.40;;;;;;;29.73;38.10;95780.03;4357252;33;20251;-73
2021/06/16 09:41:54;;;;;;;6.40;2.45;;;;;;;29.50;37.14;95791.22;4357338;33;20617;-72
2021/06/16 09:44:44;;;;;;;6.32;2.35;;;;;;;29.37;39.68;95792.13;4358411;32;20241;-74
2021/06/16 09:47:15;;;;;;;6.33;2.50;;;;;;;29.52;35.68;95790.00;4359633;33;20209;-74
2021/06/16 09:49:53;;;;;;;5.78;2.50;;;;;;;29.23;38.85;95780.69;4343506;33;20222;-74
2021/06/16 09:52:33;;;;;;;4.80;2.35;;;;;;;29.12;42.42;95779.50;4359538;33;20279;-74
2021/06/16 09:55:00;;;;;;;6.80;2.45;;;;;;;29.21;36.37;95787.25;4359965;33;20613;-75
2021/06/16 09:57:26;;;;;;;5.37;2.17;;;;;;;29.60;35.88;95791.63;4359402;33;20300;-75
2021/06/16 09:59:58;;;;;;;4.53;3.05;;;;;;;29.73;34.73;95780.84;4360164;33;20260;-75
2021/06/16 10:02:24;;;;;;;7.90;2.67;;;;;;;29.93;35.89;95786.06;4359740;33;20213;-75
2021/06/16 10:04:56;;;;;;;7.50;3.10;;;;;;;29.74;33.75;95785.16;4359674;33;20267;-75
2021/06/16 10:07:23;;;;;;;7.25;2.83;;;;;;;30.16;36.10;95774.75;4359339;33;20264;-75
2021/06/16 10:09:51;;;;;;;3.20;2.10;;;;;;;30.36;34.06;95775.41;4359799;33;20217;-75
2021/06/16 10:12:17;;;;;;;4.78;2.50;;;;;;;30.53;32.18;95781.03;4359774;33;20271;-75
2021/06/16 10:14:44;;;;;;;5.27;2.23;;;;;;;30.42;33.99;95773.75;4345816;33;20713;-75
2021/06/16 10:17:10;;;;;;;8.15;2.37;;;;;;;30.41;32.71;95773.94;4361522;32;20227;-75
2021/06/16 10:19:35;;;;;;;5.87;2.28;;;;;;;30.56;34.75;95779.78;4369578;32;20251;-75
2021/06/16 10:22:02;;;;;;;6.10;2.55;;;;;;;30.72;31.27;95775.69;4359714;33;20272;-75
2021/06/16 10:24:27;;;;;;;4.85;2.25;;;;;;;30.32;31.51;95779.56;4359664;33;20575;-75
2021/06/16 10:26:55;;;;;;;4.73;2.23;;;;;;;30.53;33.76;95781.03;4345108;33;20239;-69
2021/06/16 10:29:23;;;;;;;9.02;4.03;;;;;;;30.69;34.10;95778.81;4359573;33;20611;-75
2021/06/16 10:31:50;;;;;;;3.90;2.20;;;;;;;30.67;32.99;95771.03;4359612;33;20217;-75
2021/06/16 10:34:16;;;;;;;4.90;2.67;;;;;;;30.96;31.05;95774.00;4357967;33;20221;-75
2021/06/16 10:37:02;;;;;;;4.07;2.17;;;;;;;30.30;31.62;95768.31;4357589;33;20295;-75
2021/06/16 10:39:28;;;;;;;3.45;1.90;;;;;;;29.57;31.64;95774.12;4359065;33;20225;-75
2021/06/16 10:42:00;;;;;;;2.87;2.03;;;;;;;30.13;34.76;95762.66;4346009;33;20279;-75
2021/06/16 10:44:27;;;;;;;3.35;1.92;;;;;;;30.40;33.58;95762.44;4357893;33;20325;-75
2021/06/16 10:46:55;;;;;;;5.28;2.53;;;;;;;30.68;32.98;95766.50;4345329;33;20267;-75
2021/06/16 10:49:54;;;;;;;4.75;2.17;;;;;;;30.71;31.70;95752.69;4345465;33;20692;-75
2021/06/16 10:52:22;;;;;;;3.58;2.17;;;;;;;31.06;31.62;95752.91;4359879;32;20263;-74
2021/06/16 10:54:56;;;;;;;5.32;2.00;;;;;;;30.88;33.65;95756.41;4362099;32;20269;-75
2021/06/16 10:57:22;;;;;;;6.70;2.40;;;;;;;30.84;31.94;95765.91;4364364;32;20222;-75
2021/06/16 11:00:07;;;;;;;3.67;2.20;;;;;;;30.79;33.27;95749.75;4352471;32;20266;-77
2021/06/16 11:03:02;;;;;;;4.87;2.42;;;;;;;30.60;32.02;95754.25;4370344;32;20215;-75
2021/06/16 11:05:35;;;;;;;7.03;2.40;;;;;;;30.38;31.60;95749.31;4373557;32;20223;-74
2021/06/16 11:08:02;;;;;;;3.70;2.20;;;;;;;30.46;32.49;95750.88;4358259;32;20600;-74
2021/06/16 11:10:56;;;;;;;4.93;2.40;;;;;;;30.55;33.05;95752.22;4369393;32;20219;-76
2021/06/16 11:13:43;;;;;;;4.33;2.40;;;;;;;30.65;31.60;95750.88;4358809;33;20217;-76
2021/06/16 11:16:51;;;;;;;8.10;2.50;;;;;;;30.77;31.85;95749.94;4349210;32;20247;-77
2021/06/16 11:19:37;;;;;;;3.42;2.22;;;;;;;30.56;30.52;95743.16;4330595;33;20222;-77
2021/06/16 11:22:24;;;;;;;8.68;2.17;;;;;;;30.93;32.99;95743.19;4347724;32;20252;-77
2021/06/16 11:25:09;;;;;;;4.30;2.17;;;;;;;31.11;31.73;95742.31;4364515;32;20279;-75
2021/06/16 11:27:57;;;;;;;8.13;2.28;;;;;;;31.23;34.05;95737.06;4350979;32;20264;-75
2021/06/16 11:30:31;;;;;;;9.20;2.37;;;;;;;31.27;34.45;95732.87;4366229;32;20263;-78
2021/06/16 11:33:30;;;;;;;4.28;2.67;;;;;;;31.00;33.94;95748.44;4351349;32;20539;-74
2021/06/16 11:35:59;;;;;;;3.10;2.08;;;;;;;30.76;30.67;95736.81;4366114;32;20253;-74
2021/06/16 11:38:32;;;;;;;3.45;2.30;;;;;;;30.54;36.62;95734.53;4364336;32;20533;-73